Airfield :
LOGIN :

Register | Disclaimer

   EN    FR    IT 

 










Legend :    VFR   Marginal VFR   IFR   Intensive IFR   Very Intensive IFR
Visi :
Ceiling :
>= 8 km
>= 3000ft
5 to 8 km
1000 to 3000 ft
1500m to 5 km
500 to 1000 ft
800 to 1500m
200 to 500 ft
< 800m
< 200 ft
Symbols :   Thunderstorms  Fog  Heavy snow  Heavy precipitations  Wind > 20 kt
SIGMETs :     Misc.  Thunderstorms  Icing  Turbulence  Mountain Waves  Volcanic Ashes






- Airport Elevation : 782 ft
- IATA code : BGY


LIME - Orio al Serio International - Bergamo

CURRENT METAR :
  • 021920Z 02007KT 9999 FEW030CB SCT090 16/12 Q1012 RETS NOSIG

EXPIRED METARs :
  • 021850Z 36008KT 310V020 9999 FEW030CB SCT090 16/11 Q1011 RETS NOSIG
  • 021820Z 35005KT 310V020 8000 TS SCT020CB BKN080 16/12 Q1011 NOSIG
  • 021750Z 01008KT 330V030 9999 -TSRA SCT025CB BKN055 16/13 Q1011 NOSIG
  • 021720Z 33009KT 280V020 7000 R28/1400U -TSRA SCT020CB BKN070 18/12 Q1012 RERA NOSIG
  • 021650Z VRB04KT 7000 -TSRA SCT025CB SCT080 16/13 Q1011 RERA NOSIG

TAF AMD TAF LIME
Valid from the 02 at 19:00 until the 03 at 18:00 UTC


021933Z 0219/0318 VRB05KT 9999 FEW040
TEMPO 0219/0221 TSRA
PROB30
TEMPO 0312/0318 TSRA



MET'MAP, your aeronautical weather chart ! - Copyright ORBIFLY December 2007 - Disclaimer

ORBIFLY MET'MAP TEAM :

Programming & Development : Alexandra Zaïnal
Concept & original design : Baudouin d'Aumeries
Assistance for programming : Marc-Olivier Méhu
Technical & hardware support : Manuel Goepfert

Contact : metmap@orbifly.com




SOURCES & CREDITS :

   NOAA